Greater Rochester International Airport
KROC : now visible

Airfield :











YOU CAN JOIN US ON...

 
LOGIN :

Register | Disclaimer

   EN    FR    IT 

 









Legend :    VFR   Marginal VFR   IFR   Intensive IFR   Very Intensive IFR
Visi :
Ceiling :
>= 8 km
>= 3000ft
5 to 8 km
1000 to 3000 ft
1500m to 5 km
500 to 1000 ft
800 to 1500m
200 to 500 ft
< 800m
< 200 ft
Symbols :   Thunderstorms  Fog  Heavy snow  Heavy precipitations  Wind > 20 kt






- Airport Elevation : 559 ft
- IATA code : ROC


KROC - Greater Rochester International

CURRENT METAR :
  • 011554Z 24017G23KT 9SM -SN BKN028 M07/M12 A3029 RMK AO2 SNB12 SLP272 P0000 T10671122

EXPIRED METARs :
  • 011512Z 26013KT 10SM -SN OVC028 M08/M14 A3029 RMK AO2 SNB12 P0000 T10781139
  • 011454Z 24013KT 10SM FEW034 SCT250 M08/M14 A3029 RMK AO2 SLP271 T10781139 51008
  • 011354Z 22006KT 10SM SCT034 BKN060 M09/M14 A3028 RMK AO2 SLP269 T10941144

TAF KROC
Valid from the 01 at 15:00 until the 02 at 12:00 UTC


011506Z 0115/0212 25014G22KT P6SM SCT025 BKN035
FM012300 25012KT P6SM SCT035
FM020300 25008KT P6SM SCT110
FM020600 24008KT P6SM BKN060
KZOB FIR / North America



MET'MAP, your aeronautical weather chart ! - Copyright ORBIFLY December 2007 - Disclaimer

ORBIFLY MET'MAP TEAM :

Programming & Development : Alexandra Zaïnal
Original concept : Baudouin d'Aumeries
Technical & hardware support : Manuel Goepfert
Assistance : Marc-Olivier Méhu




SOURCES & CREDITS :

   NOAA       Earth
Advisory